This is the latest recevied weather packets stored in our database for station/object WB9ZLM. If no packets are shown the sender has not sent any weather packets the latest 10 day(s).
| Time | Temp. | Humidity | Pressure | Rain* | Wind** | Luminosity | Snow |
|---|---|---|---|---|---|---|---|
| 1777914960 | 22.22° C | 44% | 1004.6 hPa | 0 mm | - | - | - |
| 1777914121 | 22.22° C | 45% | 1004.6 hPa | 0 mm | - | - | - |
| 1777914060 | 22.22° C | 45% | 1004.6 hPa | 0 mm | - | - | - |
| 1777913222 | 21.67° C | 45% | 1004.9 hPa | 0 mm | - | - | - |
| 1777913160 | 21.67° C | 45% | 1004.9 hPa | 0 mm | - | - | - |
| 1777912322 | 21.11° C | 47% | 1005 hPa | 0 mm | - | - | - |
| 1777912260 | 21.11° C | 47% | 1005 hPa | 0 mm | - | - | - |
| 1777911422 | 20.56° C | 50% | 1005.2 hPa | 0 mm | - | - | - |
| 1777911360 | 20.56° C | 50% | 1005.2 hPa | 0 mm | - | - | - |
| 1777910522 | 20° C | 51% | 1005.4 hPa | 0 mm | - | - | - |
| 1777910460 | 20° C | 51% | 1005.4 hPa | 0 mm | - | - | - |
| 1777909621 | 19.44° C | 58% | 1005.5 hPa | 0 mm | - | - | - |
| 1777909561 | 19.44° C | 58% | 1005.5 hPa | 0 mm | - | - | - |
| 1777908722 | 18.33° C | 62% | 1005.6 hPa | 0 mm | - | - | - |
| 1777908660 | 18.33° C | 62% | 1005.6 hPa | 0 mm | - | - | - |
| 1777907822 | 17.78° C | 66% | 1005.6 hPa | 0 mm | - | - | - |
| 1777907760 | 17.78° C | 66% | 1005.6 hPa | 0 mm | - | - | - |
| 1777906921 | 17.22° C | 66% | 1005.8 hPa | 0 mm | - | - | - |
| 1777906860 | 17.22° C | 66% | 1005.8 hPa | 0 mm | - | - | - |
| 1777906021 | 16.67° C | 69% | 1005.8 hPa | 0 mm | - | - | - |
| 1777905960 | 16.67° C | 69% | 1005.8 hPa | 0 mm | - | - | - |
| 1777905121 | 16.11° C | 70% | 1006 hPa | 0 mm | - | - | - |
| 1777905060 | 16.11° C | 70% | 1006 hPa | 0 mm | - | - | - |
| 1777904221 | 15.56° C | 71% | 1006.2 hPa | 0 mm | - | - | - |
| 1777904160 | 15.56° C | 71% | 1006.2 hPa | 0 mm | - | - | - |
* Rain latest hour (hover to see other rain measurements)
** Current wind speed in m/s (hover to see current wind gust speed)